EBCI - Charleroi/Gosselies, Belgium
Distance de la station: NE 18km
Mise à jour: 30/09/2022 04:20
brume, partiellement nuageux
brume, partiellement nuageux
 Wind from SSO
Vent: SSO 7 km/h
Température: 6°C
Température ressentie: 4°C
Point de rosée: 6°C
Humidité: 100%
Baromètre: 1009 hPa
Résumé: brume
Ciel: partiellement nuageux
Visibilité: 3 km
2022/09/30 02:20 EBCI 300220Z 20004KT 2900 BR NSC 06/06 Q1009 TEMPO 0800 FG
EBFS - Florennes, Belgium
Distance de la station: ESE 31km
Mise à jour: 30/09/2022 04:34
brume, clair
brume, clair
 Wind from varies
Vent: varies 2 km/h
Température: 5°C
Point de rosée: 5°C
Humidité: 100%
Baromètre: 1008 hPa
Résumé: brume
Ciel: clair
Visibilité: 3 km
2022/09/30 02:34 EBFS 300234Z AUTO VRB01KT 3400 BR NCD 05/05 Q1008 YLO
EBCV - Chievres, Belgium
Distance de la station: NO 40km
Mise à jour: 30/09/2022 04:33
brume, clair
brume, clair
 Wind from varies
Vent: varies 4 km/h
Température: 6°C
Point de rosée: 6°C
Humidité: 100%
Baromètre: 1008 hPa
Résumé: brume
Ciel: clair
Visibilité: 3 km
2022/09/30 02:33 EBCV 300233Z AUTO VRB02KT 2800 BR NCD 06/06 Q1008 YLO
 
EBBE - Beauvechain, Belgium
Distance de la station: NE 57km
Mise à jour: 30/09/2022 04:25
brume, clair
brume, clair
 Wind from SSO
Vent: SSO 9 km/h
Température: 7°C
Température ressentie: 6°C
Point de rosée: 7°C
Humidité: 100%
Baromètre: 1008 hPa
Résumé: brume
Ciel: clair
Visibilité: 4 km
2022/09/30 02:25 EBBE 300225Z AUTO 21005KT 4400 BR NCD 07/07 Q1008 GRN
EBBR - Brussels National, Belgium
Distance de la station: NNE 63km
Mise à jour: 30/09/2022 04:20
clair
clair
 Wind from SSO
Vent: SSO 9 km/h
Température: 6°C
Température ressentie: 4°C
Point de rosée: 5°C
Humidité: 93%
Baromètre: 1008 hPa
Résumé: clair
Visibilité: greater than 10 km
2022/09/30 02:20 EBBR 300220Z 21005KT CAVOK 06/05 Q1008 NOSIG
LFQI - Cambrai/Epinoy, France
Distance de la station: O 82km
Mise à jour: 29/06/2012 12:30
NOT Current

 Wind from SO
Vent: SO 17 km/h
Température: 18°C
Point de rosée: 14°C
Humidité: 78%
Baromètre: 1009 hPa
2012/06/29 10:30 LFQI 291030Z AUTO 22009KT //// // ///////// 18/14 Q1009
 
LFQQ - Lille/Lesquin, France
Distance de la station: ONO 86km
Mise à jour: 30/09/2022 04:30

 Wind from ESE
Vent: ESE 4 km/h
Visibilité: 6 km
2022/09/30 02:30 LFQQ 300230Z AUTO 12002KT 6000 0800 R26/1000U R08/P5000 BCFG VV/// 07/06 Q1008 TEMPO 2000 BR BECMG SCT030
EBLG - Bierset/Liege, Belgium
Distance de la station: ENE 89km
Mise à jour: 30/09/2022 04:20
partiellement nuageux
partiellement nuageux
 Wind from S
Vent: S 11 km/h
Température: 6°C
Température ressentie: 4°C
Point de rosée: 5°C
Humidité: 93%
Baromètre: 1008 hPa
Ciel: partiellement nuageux
Visibilité: 8 km
2022/09/30 02:20 EBLG 300220Z 17006KT 140V200 8000 NSC 06/05 Q1008 TEMPO 3000 BR
EBDT - Schaffen, Belgium
Distance de la station: NE 93km
Mise à jour: 30/09/2022 04:25
brouillard, clair
brouillard, clair
 Wind from varies
Vent: varies 4 km/h
Température: 5°C
Point de rosée: 5°C
Humidité: 100%
Baromètre: 1008 hPa
Résumé: brouillard
Ciel: clair
Visibilité: 0 km
2022/09/30 02:25 EBDT 300225Z AUTO VRB02KT 0250 FG NCD 05/05 Q1008 RED
 
EBAW - Antwerp/Deurne, Belgium
Distance de la station: N 96km
Mise à jour: 30/09/2022 04:20
brouillard
brouillard
 Wind from varies
Vent: varies 2 km/h
Température: 5°C
Point de rosée: 5°C
Humidité: 100%
Baromètre: 1008 hPa
Résumé: brouillard
Visibilité: 0 km
2022/09/30 02:20 EBAW 300220Z AUTO VRB01KT 0450 R11/0500D R29/1500D FG VV/// 05/05 Q1008
LFAQ - Bray, France
Distance de la station: OSO 119km
Mise à jour: 30/09/2022 04:30
brouillard, partiellement nuageux
brouillard, partiellement nuageux
 Wind from varies
Vent: varies 4 km/h
Température: 6°C
Point de rosée: 6°C
Humidité: 100%
Baromètre: 1009 hPa
Résumé: brouillard
Ciel: partiellement nuageux
Visibilité: 1 km
2022/09/30 02:30 LFAQ 300230Z AUTO VRB02KT 0500 R27/0900D FG NSC 06/06 Q1009
LFSR - Reims/Champagne, France
Distance de la station: S 120km
Mise à jour: 16/04/2012 09:00
NOT Current
partiellement nuageux
partiellement nuageux
 Wind from N
Vent: N 17 km/h
Température: 4°C
Température ressentie: 0°C
Point de rosée: 0°C
Humidité: 75%
Baromètre: 1022 hPa
Ciel: partiellement nuageux
Visibilité: 10 km
2012/04/16 07:00 LFSR 160700Z AUTO 01009KT 340V070 9999 NSC 04/00 Q1022
 
EHWO - Woensdrecht, Netherlands
Distance de la station: N 122km
Mise à jour: 30/09/2022 04:34
brume, clair
brume, clair
 Wind from SE
Vent: SE 2 km/h
Température: 3°C
Point de rosée: 3°C
Humidité: 100%
Baromètre: 1008 hPa
Résumé: brume
Ciel: clair
Visibilité: 8 km
2022/09/30 02:34 EHWO 300234Z AUTO 14001KT 8000 BR NCD 03/03 Q1008 BLU
EHBK - Zuid-Limburg, Netherlands
Distance de la station: ENE 123km
Mise à jour: 30/09/2022 04:25
clair
clair
 Wind from SSO
Vent: SSO 13 km/h
Température: 6°C
Température ressentie: 3°C
Point de rosée: 5°C
Humidité: 93%
Baromètre: 1008 hPa
Ciel: clair
Visibilité: 10 km
2022/09/30 02:25 EHBK 300225Z AUTO 20007KT 9999 NCD 06/05 Q1008
EBBL - Kleine-Brogel, Belgium
Distance de la station: NE 124km
Mise à jour: 30/09/2022 04:25
pluie légère, clair
pluie légère, clair
 Wind from varies
Vent: varies 4 km/h
Température: 5°C
Point de rosée: 5°C
Humidité: 100%
Baromètre: 1008 hPa
Résumé: pluie légère
Ciel: clair
Visibilité: 0 km
2022/09/30 02:25 EBBL 300225Z AUTO VRB02KT 0300 -RA NCD 05/05 Q1008 RED
 
EBLB - Elsenborn, Belgium
Distance de la station: E 135km
Mise à jour: 30/09/2022 04:25
clair
clair
 Wind from varies
Vent: varies 2 km/h
Température: -1°C
Point de rosée: -2°C
Humidité: 93%
Baromètre: 1008 hPa
Ciel: clair
Visibilité: 10 km
2022/09/30 02:25 EBLB 300225Z AUTO VRB01KT 9999 NCD M01/M02 Q1008 BLU
EBOS - Oostende Airport, Belgium
Distance de la station: NO 136km
Mise à jour: 30/09/2022 04:20
quelques nuages
quelques nuages
 Wind from varies
Vent: varies 2 km/h
Température: 6°C
Point de rosée: 5°C
Humidité: 93%
Baromètre: 1008 hPa
Ciel: quelques nuages
Visibilité: 8 km
Détails du ciel: quelques nuages 914 m
2022/09/30 02:20 EBOS 300220Z VRB01KT 8000 FEW030TCU 06/05 Q1008 TEMPO 4000 BR
EBFN - Koksijde, Belgium
Distance de la station: NO 140km
Mise à jour: 30/09/2022 04:25
clair
clair
 Wind from SO
Vent: SO 7 km/h
Température: 8°C
Température ressentie: 7°C
Point de rosée: 7°C
Humidité: 93%
Baromètre: 1008 hPa
Ciel: clair
Visibilité: 10 km
2022/09/30 02:25 EBFN 300225Z AUTO 23004KT 9999 NCD 08/07 Q1008 BLU
 
ETNG - Geilenkirchen, Germany
Distance de la station: ENE 142km
Mise à jour: 30/09/2022 03:50
clair
clair
 Wind from SSE
Vent: SSE 2 km/h
Température: 4°C
Point de rosée: 4°C
Humidité: 100%
Baromètre: 1008 hPa
Résumé: clair
Visibilité: greater than 10 km
2022/09/30 01:50 ETNG 300150Z 15001KT CAVOK 04/04 Q1008
EHGR - Gilze-Rijen, Netherlands
Distance de la station: NNE 143km
Mise à jour: 30/09/2022 04:25
clair
clair
 Wind from SO
Vent: SO 2 km/h
Température: 4°C
Point de rosée: 4°C
Humidité: 100%
Baromètre: 1008 hPa
Ciel: clair
Visibilité: 10 km
2022/09/30 02:25 EHGR 300225Z AUTO 22001KT 9999 NCD 04/04 Q1008 BLU
EHEH - Eindhoven, Netherlands
Distance de la station: NNE 147km
Mise à jour: 30/09/2022 04:35
brume, clair
brume, clair
 Wind from SSO
Vent: SSO 4 km/h
Température: 3°C
Point de rosée: 3°C
Humidité: 100%
Baromètre: 1008 hPa
Résumé: brume
Ciel: clair
Visibilité: 8 km
2022/09/30 02:35 EHEH 300235Z AUTO 21002KT 8000 BR NCD 03/03 Q1008 BLU
 
ELLX - Luxembourg, Luxembourg
Distance de la station: ESE 162km
Mise à jour: 30/09/2022 04:20
clair
clair
 Wind from N
Vent: N 9 km/h
Température: 5°C
Température ressentie: 3°C
Point de rosée: 4°C
Humidité: 93%
Baromètre: 1008 hPa
Ciel: clair
Visibilité: 10 km
2022/09/30 02:20 ELLX 300220Z AUTO 36005KT 9999 NCD 05/04 Q1008 NOSIG
EHVK - Volkel, Netherlands
Distance de la station: NE 174km
Mise à jour: 30/09/2022 04:34
brouillard, partiellement nuageux
brouillard, partiellement nuageux
 Wind from OSO
Vent: OSO 4 km/h
Température: 3°C
Point de rosée: 2°C
Humidité: 93%
Baromètre: 1008 hPa
Résumé: brouillard
Ciel: partiellement nuageux
Visibilité: 1 km
Détails du ciel: partiellement nuageux 0 m
2022/09/30 02:34 EHVK 300234Z AUTO 24002KT 0700 FG SCT000 03/02 Q1008 RED
LFOK - Chalons/Vatry, France
Distance de la station: S 174km
Mise à jour: 30/09/2022 04:30
clair
clair
 Wind from N
Vent: N 4 km/h
Température: 5°C
Point de rosée: 5°C
Humidité: 100%
Baromètre: 1009 hPa
Résumé: clair
Visibilité: greater than 10 km
2022/09/30 02:30 LFOK 300230Z AUTO 35002KT CAVOK 05/05 Q1009 TEMPO 0300 FG VV///
Script from Saratoga-Weather.org